sensor_id;sensor_type;location;lat;lon;timestamp;pressure;altitude;pressure_sealevel;temperature;humidity
51147;BME280;37207;53.060;18.726;2022-10-16T00:01:21;100578.84;;;13.70;86.06
51147;BME280;37207;53.060;18.726;2022-10-16T00:03:50;100575.25;;;13.70;86.08
51147;BME280;37207;53.060;18.726;2022-10-16T00:06:19;100571.57;;;13.69;85.97
51147;BME280;37207;53.060;18.726;2022-10-16T00:08:46;100573.26;;;13.68;86.01
51147;BME280;37207;53.060;18.726;2022-10-16T00:11:19;100575.13;;;13.67;86.01
51147;BME280;37207;53.060;18.726;2022-10-16T00:13:48;100581.14;;;13.66;86.10
51147;BME280;37207;53.060;18.726;2022-10-16T00:16:16;100579.06;;;13.65;86.18
51147;BME280;37207;53.060;18.726;2022-10-16T00:18:43;100579.32;;;13.65;86.27
51147;BME280;37207;53.060;18.726;2022-10-16T00:21:19;100581.44;;;13.64;86.24
51147;BME280;37207;53.060;18.726;2022-10-16T00:23:46;100585.83;;;13.64;86.34
51147;BME280;37207;53.060;18.726;2022-10-16T00:26:17;100590.42;;;13.63;86.28
51147;BME280;37207;53.060;18.726;2022-10-16T00:28:48;100593.04;;;13.62;86.25
51147;BME280;37207;53.060;18.726;2022-10-16T00:31:17;100595.67;;;13.60;86.26
51147;BME280;37207;53.060;18.726;2022-10-16T00:33:43;100603.75;;;13.58;86.16
51147;BME280;37207;53.060;18.726;2022-10-16T00:36:13;100604.45;;;13.57;86.27
51147;BME280;37207;53.060;18.726;2022-10-16T00:38:40;100604.20;;;13.54;86.14
51147;BME280;37207;53.060;18.726;2022-10-16T00:41:11;100601.52;;;13.51;86.24
51147;BME280;37207;53.060;18.726;2022-10-16T00:43:42;100600.69;;;13.48;86.19
51147;BME280;37207;53.060;18.726;2022-10-16T00:46:37;100596.19;;;13.44;86.31
51147;BME280;37207;53.060;18.726;2022-10-16T00:49:13;100600.73;;;13.39;86.28
51147;BME280;37207;53.060;18.726;2022-10-16T00:51:44;100605.16;;;13.35;86.35
51147;BME280;37207;53.060;18.726;2022-10-16T00:54:15;100611.59;;;13.31;86.22
51147;BME280;37207;53.060;18.726;2022-10-16T00:56:44;100617.43;;;13.27;86.30
51147;BME280;37207;53.060;18.726;2022-10-16T00:59:18;100618.89;;;13.21;86.36
51147;BME280;37207;53.060;18.726;2022-10-16T01:01:45;100615.05;;;13.16;86.29
51147;BME280;37207;53.060;18.726;2022-10-16T01:04:12;100605.44;;;13.11;86.41
51147;BME280;37207;53.060;18.726;2022-10-16T01:12:09;100602.19;;;12.94;86.56
51147;BME280;37207;53.060;18.726;2022-10-16T01:14:47;100604.05;;;12.88;86.68
51147;BME280;37207;53.060;18.726;2022-10-16T01:17:19;100608.20;;;12.83;86.67
51147;BME280;37207;53.060;18.726;2022-10-16T01:20:42;100611.04;;;12.78;86.71
51147;BME280;37207;53.060;18.726;2022-10-16T01:28:36;100616.43;;;12.60;87.06
51147;BME280;37207;53.060;18.726;2022-10-16T01:31:06;100613.23;;;12.56;87.05
51147;BME280;37207;53.060;18.726;2022-10-16T01:33:42;100610.23;;;12.51;87.10
51147;BME280;37207;53.060;18.726;2022-10-16T01:36:14;100612.30;;;12.46;87.27
51147;BME280;37207;53.060;18.726;2022-10-16T01:38:43;100614.10;;;12.42;87.30
51147;BME280;37207;53.060;18.726;2022-10-16T01:41:24;100614.02;;;12.37;87.32
51147;BME280;37207;53.060;18.726;2022-10-16T01:44:06;100614.41;;;12.33;87.48
51147;BME280;37207;53.060;18.726;2022-10-16T01:46:37;100616.55;;;12.29;87.66
51147;BME280;37207;53.060;18.726;2022-10-16T01:49:05;100612.73;;;12.27;87.92
51147;BME280;37207;53.060;18.726;2022-10-16T01:51:33;100626.98;;;12.26;88.14
51147;BME280;37207;53.060;18.726;2022-10-16T01:54:01;100627.38;;;12.26;88.23
51147;BME280;37207;53.060;18.726;2022-10-16T01:56:29;100624.95;;;12.26;88.36
51147;BME280;37207;53.060;18.726;2022-10-16T01:59:00;100634.88;;;12.26;88.48
51147;BME280;37207;53.060;18.726;2022-10-16T02:01:31;100633.32;;;12.27;88.57
51147;BME280;37207;53.060;18.726;2022-10-16T02:04:10;100634.34;;;12.27;88.70
51147;BME280;37207;53.060;18.726;2022-10-16T02:06:38;100635.95;;;12.28;88.90
51147;BME280;37207;53.060;18.726;2022-10-16T02:09:04;100641.90;;;12.29;89.03
51147;BME280;37207;53.060;18.726;2022-10-16T02:11:31;100636.49;;;12.30;89.06
51147;BME280;37207;53.060;18.726;2022-10-16T02:14:01;100630.66;;;12.29;89.23
51147;BME280;37207;53.060;18.726;2022-10-16T02:16:38;100629.61;;;12.29;89.12
51147;BME280;37207;53.060;18.726;2022-10-16T02:19:06;100629.70;;;12.29;89.38
51147;BME280;37207;53.060;18.726;2022-10-16T02:21:49;100627.29;;;12.29;89.38
51147;BME280;37207;53.060;18.726;2022-10-16T02:24:33;100618.88;;;12.28;89.41
51147;BME280;37207;53.060;18.726;2022-10-16T02:29:43;100621.15;;;12.28;89.48
51147;BME280;37207;53.060;18.726;2022-10-16T02:32:17;100621.74;;;12.27;89.52
51147;BME280;37207;53.060;18.726;2022-10-16T02:34:48;100622.45;;;12.26;89.63
51147;BME280;37207;53.060;18.726;2022-10-16T02:37:15;100617.85;;;12.24;89.63
51147;BME280;37207;53.060;18.726;2022-10-16T02:39:43;100615.91;;;12.21;89.56
51147;BME280;37207;53.060;18.726;2022-10-16T02:42:12;100615.20;;;12.18;89.61
51147;BME280;37207;53.060;18.726;2022-10-16T02:44:39;100619.31;;;12.17;89.78
51147;BME280;37207;53.060;18.726;2022-10-16T02:47:06;100619.15;;;12.16;89.74
51147;BME280;37207;53.060;18.726;2022-10-16T02:49:32;100616.89;;;12.15;89.92
51147;BME280;37207;53.060;18.726;2022-10-16T02:51:59;100614.97;;;12.14;89.87
51147;BME280;37207;53.060;18.726;2022-10-16T02:54:25;100614.11;;;12.14;89.98
51147;BME280;37207;53.060;18.726;2022-10-16T02:56:52;100614.25;;;12.13;90.06
51147;BME280;37207;53.060;18.726;2022-10-16T02:59:19;100614.61;;;12.13;90.04
51147;BME280;37207;53.060;18.726;2022-10-16T03:01:45;100619.79;;;12.13;90.14
51147;BME280;37207;53.060;18.726;2022-10-16T03:04:12;100616.63;;;12.13;90.25
51147;BME280;37207;53.060;18.726;2022-10-16T03:06:38;100619.59;;;12.13;90.32
51147;BME280;37207;53.060;18.726;2022-10-16T03:09:05;100625.64;;;12.13;90.27
51147;BME280;37207;53.060;18.726;2022-10-16T03:11:31;100615.76;;;12.13;90.33
51147;BME280;37207;53.060;18.726;2022-10-16T03:13:58;100615.91;;;12.13;90.43
51147;BME280;37207;53.060;18.726;2022-10-16T03:16:24;100617.92;;;12.13;90.41
51147;BME280;37207;53.060;18.726;2022-10-16T03:18:51;100610.48;;;12.12;90.38
51147;BME280;37207;53.060;18.726;2022-10-16T03:21:18;100603.39;;;12.11;90.55
51147;BME280;37207;53.060;18.726;2022-10-16T03:23:44;100604.20;;;12.11;90.55
51147;BME280;37207;53.060;18.726;2022-10-16T03:26:11;100610.84;;;12.11;90.66
51147;BME280;37207;53.060;18.726;2022-10-16T03:28:37;100614.91;;;12.12;90.59
51147;BME280;37207;53.060;18.726;2022-10-16T03:31:04;100619.99;;;12.13;90.90
51147;BME280;37207;53.060;18.726;2022-10-16T03:33:30;100623.33;;;12.14;90.81
51147;BME280;37207;53.060;18.726;2022-10-16T03:35:57;100623.48;;;12.15;90.80
51147;BME280;37207;53.060;18.726;2022-10-16T03:38:24;100628.13;;;12.17;91.02
51147;BME280;37207;53.060;18.726;2022-10-16T03:40:50;100635.09;;;12.19;90.88
51147;BME280;37207;53.060;18.726;2022-10-16T03:43:17;100631.62;;;12.20;90.91
51147;BME280;37207;53.060;18.726;2022-10-16T03:45:43;100633.64;;;12.22;90.96
51147;BME280;37207;53.060;18.726;2022-10-16T03:48:10;100633.50;;;12.23;91.16
51147;BME280;37207;53.060;18.726;2022-10-16T03:50:37;100637.63;;;12.24;91.13
51147;BME280;37207;53.060;18.726;2022-10-16T03:53:04;100638.65;;;12.25;91.19
51147;BME280;37207;53.060;18.726;2022-10-16T03:55:30;100636.64;;;12.26;91.23
51147;BME280;37207;53.060;18.726;2022-10-16T03:57:57;100642.49;;;12.27;91.29
51147;BME280;37207;53.060;18.726;2022-10-16T04:00:23;100644.01;;;12.28;91.29
51147;BME280;37207;53.060;18.726;2022-10-16T04:02:50;100646.67;;;12.30;91.31
51147;BME280;37207;53.060;18.726;2022-10-16T04:05:16;100642.98;;;12.30;91.26
51147;BME280;37207;53.060;18.726;2022-10-16T04:07:43;100641.64;;;12.32;91.31
51147;BME280;37207;53.060;18.726;2022-10-16T04:10:10;100640.79;;;12.32;91.43
51147;BME280;37207;53.060;18.726;2022-10-16T04:12:36;100640.73;;;12.33;91.42
51147;BME280;37207;53.060;18.726;2022-10-16T04:15:03;100639.89;;;12.34;91.42
51147;BME280;37207;53.060;18.726;2022-10-16T04:17:29;100644.73;;;12.35;91.37
51147;BME280;37207;53.060;18.726;2022-10-16T04:19:56;100648.25;;;12.35;91.40
51147;BME280;37207;53.060;18.726;2022-10-16T04:22:22;100658.95;;;12.37;91.33
51147;BME280;37207;53.060;18.726;2022-10-16T04:24:49;100667.66;;;12.38;91.35
51147;BME280;37207;53.060;18.726;2022-10-16T04:27:16;100667.92;;;12.38;91.29
51147;BME280;37207;53.060;18.726;2022-10-16T04:29:42;100667.17;;;12.39;91.38
51147;BME280;37207;53.060;18.726;2022-10-16T04:32:09;100662.59;;;12.40;91.30
51147;BME280;37207;53.060;18.726;2022-10-16T04:34:36;100658.91;;;12.41;91.37
51147;BME280;37207;53.060;18.726;2022-10-16T04:37:04;100653.23;;;12.42;91.53
51147;BME280;37207;53.060;18.726;2022-10-16T04:39:31;100651.22;;;12.42;91.45
51147;BME280;37207;53.060;18.726;2022-10-16T04:41:57;100655.20;;;12.43;91.44
51147;BME280;37207;53.060;18.726;2022-10-16T04:44:24;100659.04;;;12.44;91.43
51147;BME280;37207;53.060;18.726;2022-10-16T04:46:51;100656.98;;;12.45;91.40
51147;BME280;37207;53.060;18.726;2022-10-16T04:49:18;100657.89;;;12.45;91.29
51147;BME280;37207;53.060;18.726;2022-10-16T04:51:44;100660.55;;;12.47;91.36
51147;BME280;37207;53.060;18.726;2022-10-16T04:54:11;100663.37;;;12.47;91.41
51147;BME280;37207;53.060;18.726;2022-10-16T04:56:38;100668.52;;;12.48;91.35
51147;BME280;37207;53.060;18.726;2022-10-16T04:59:14;100665.45;;;12.49;91.43
51147;BME280;37207;53.060;18.726;2022-10-16T05:01:41;100664.69;;;12.50;91.47
51147;BME280;37207;53.060;18.726;2022-10-16T05:04:09;100662.58;;;12.51;91.37
51147;BME280;37207;53.060;18.726;2022-10-16T05:06:37;100660.77;;;12.52;91.48
51147;BME280;37207;53.060;18.726;2022-10-16T05:09:05;100670.55;;;12.52;91.37
51147;BME280;37207;53.060;18.726;2022-10-16T05:11:32;100674.53;;;12.53;91.28
51147;BME280;37207;53.060;18.726;2022-10-16T05:13:59;100675.44;;;12.54;91.40
51147;BME280;37207;53.060;18.726;2022-10-16T05:16:26;100675.00;;;12.55;91.44
51147;BME280;37207;53.060;18.726;2022-10-16T05:18:53;100680.19;;;12.56;91.51
51147;BME280;37207;53.060;18.726;2022-10-16T05:21:20;100684.58;;;12.57;91.40
51147;BME280;37207;53.060;18.726;2022-10-16T05:23:47;100697.63;;;12.58;91.23
51147;BME280;37207;53.060;18.726;2022-10-16T05:26:13;100700.63;;;12.60;91.29
51147;BME280;37207;53.060;18.726;2022-10-16T05:28:40;100699.82;;;12.61;91.18
51147;BME280;37207;53.060;18.726;2022-10-16T05:31:09;100700.13;;;12.63;91.26
51147;BME280;37207;53.060;18.726;2022-10-16T05:33:35;100707.08;;;12.64;91.19
51147;BME280;37207;53.060;18.726;2022-10-16T05:36:07;100705.77;;;12.66;91.13
51147;BME280;37207;53.060;18.726;2022-10-16T05:38:35;100709.05;;;12.67;91.23
51147;BME280;37207;53.060;18.726;2022-10-16T05:41:04;100714.45;;;12.70;91.16
51147;BME280;37207;53.060;18.726;2022-10-16T05:43:31;100716.13;;;12.72;91.22
51147;BME280;37207;53.060;18.726;2022-10-16T05:46:04;100717.75;;;12.74;91.09
51147;BME280;37207;53.060;18.726;2022-10-16T05:48:32;100717.86;;;12.75;91.07
51147;BME280;37207;53.060;18.726;2022-10-16T05:51:04;100715.26;;;12.77;91.12
51147;BME280;37207;53.060;18.726;2022-10-16T05:53:34;100718.69;;;12.79;91.11
51147;BME280;37207;53.060;18.726;2022-10-16T05:56:02;100717.54;;;12.81;91.12
51147;BME280;37207;53.060;18.726;2022-10-16T05:58:36;100719.74;;;12.83;91.02
51147;BME280;37207;53.060;18.726;2022-10-16T06:01:06;100728.59;;;12.85;90.95
51147;BME280;37207;53.060;18.726;2022-10-16T06:03:34;100739.18;;;12.88;91.11
51147;BME280;37207;53.060;18.726;2022-10-16T06:06:13;100742.23;;;12.92;91.16
51147;BME280;37207;53.060;18.726;2022-10-16T06:08:41;100745.02;;;12.95;91.23
51147;BME280;37207;53.060;18.726;2022-10-16T06:11:10;100747.89;;;12.98;91.19
51147;BME280;37207;53.060;18.726;2022-10-16T06:13:37;100750.82;;;13.01;91.12
51147;BME280;37207;53.060;18.726;2022-10-16T06:16:06;100747.26;;;13.04;91.22
51147;BME280;37207;53.060;18.726;2022-10-16T06:18:32;100739.75;;;13.08;91.27
51147;BME280;37207;53.060;18.726;2022-10-16T06:20:59;100736.63;;;13.14;91.32
51147;BME280;37207;53.060;18.726;2022-10-16T06:23:28;100734.67;;;13.21;91.47
51147;BME280;37207;53.060;18.726;2022-10-16T06:26:03;100722.50;;;13.30;91.45
51147;BME280;37207;53.060;18.726;2022-10-16T06:28:30;100723.72;;;13.39;91.46
51147;BME280;37207;53.060;18.726;2022-10-16T06:31:03;100725.50;;;13.47;91.38
51147;BME280;37207;53.060;18.726;2022-10-16T06:33:30;100731.41;;;13.57;91.24
51147;BME280;37207;53.060;18.726;2022-10-16T06:36:03;100731.52;;;13.66;91.15
51147;BME280;37207;53.060;18.726;2022-10-16T06:38:31;100732.89;;;13.77;91.17
51147;BME280;37207;53.060;18.726;2022-10-16T06:40:58;100737.48;;;13.91;91.17
51147;BME280;37207;53.060;18.726;2022-10-16T06:43:26;100739.55;;;14.07;91.04
51147;BME280;37207;53.060;18.726;2022-10-16T06:45:56;100747.71;;;14.25;90.85
51147;BME280;37207;53.060;18.726;2022-10-16T06:48:24;100744.61;;;14.44;90.54
51147;BME280;37207;53.060;18.726;2022-10-16T06:51:13;100745.09;;;14.58;90.32
51147;BME280;37207;53.060;18.726;2022-10-16T06:53:42;100750.65;;;14.72;90.00
51147;BME280;37207;53.060;18.726;2022-10-16T06:56:16;100758.36;;;14.84;89.72
51147;BME280;37207;53.060;18.726;2022-10-16T06:58:43;100765.04;;;14.92;89.44
51147;BME280;37207;53.060;18.726;2022-10-16T07:01:11;100769.13;;;14.95;89.19
51147;BME280;37207;53.060;18.726;2022-10-16T07:03:40;100771.50;;;14.94;88.95
51147;BME280;37207;53.060;18.726;2022-10-16T07:06:10;100776.52;;;14.92;88.75
51147;BME280;37207;53.060;18.726;2022-10-16T07:08:39;100780.71;;;14.92;88.68
51147;BME280;37207;53.060;18.726;2022-10-16T07:11:12;100783.54;;;14.94;88.69
51147;BME280;37207;53.060;18.726;2022-10-16T07:13:41;100784.45;;;15.00;88.56
51147;BME280;37207;53.060;18.726;2022-10-16T07:16:14;100780.73;;;15.04;88.42
51147;BME280;37207;53.060;18.726;2022-10-16T07:18:41;100775.16;;;15.06;88.33
51147;BME280;37207;53.060;18.726;2022-10-16T07:23:41;100772.33;;;15.06;88.04
51147;BME280;37207;53.060;18.726;2022-10-16T07:26:09;100774.08;;;15.03;87.98
51147;BME280;37207;53.060;18.726;2022-10-16T07:28:36;100773.61;;;15.01;88.01
51147;BME280;37207;53.060;18.726;2022-10-16T07:31:08;100770.88;;;15.02;87.96
51147;BME280;37207;53.060;18.726;2022-10-16T07:33:37;100768.60;;;15.02;87.91
51147;BME280;37207;53.060;18.726;2022-10-16T07:36:05;100773.58;;;15.08;87.95
51147;BME280;37207;53.060;18.726;2022-10-16T07:38:32;100773.73;;;15.17;87.89
51147;BME280;37207;53.060;18.726;2022-10-16T07:40:59;100781.63;;;15.28;87.79
51147;BME280;37207;53.060;18.726;2022-10-16T07:43:27;100785.64;;;15.35;87.74
51147;BME280;37207;53.060;18.726;2022-10-16T07:45:54;100783.36;;;15.42;87.72
51147;BME280;37207;53.060;18.726;2022-10-16T07:48:22;100789.62;;;15.45;87.61
51147;BME280;37207;53.060;18.726;2022-10-16T07:50:50;100798.13;;;15.47;87.49
51147;BME280;37207;53.060;18.726;2022-10-16T07:53:16;100801.31;;;15.44;87.38
51147;BME280;37207;53.060;18.726;2022-10-16T07:55:43;100800.60;;;15.39;87.24
51147;BME280;37207;53.060;18.726;2022-10-16T07:58:10;100813.41;;;15.36;87.31
51147;BME280;37207;53.060;18.726;2022-10-16T08:00:37;100809.17;;;15.34;87.31
51147;BME280;37207;53.060;18.726;2022-10-16T08:03:04;100805.38;;;15.35;87.23
51147;BME280;37207;53.060;18.726;2022-10-16T08:05:32;100805.39;;;15.41;87.39
51147;BME280;37207;53.060;18.726;2022-10-16T08:08:01;100809.52;;;15.46;87.41
51147;BME280;37207;53.060;18.726;2022-10-16T08:10:28;100812.07;;;15.50;87.35
51147;BME280;37207;53.060;18.726;2022-10-16T08:12:55;100811.35;;;15.54;87.31
51147;BME280;37207;53.060;18.726;2022-10-16T08:15:22;100813.74;;;15.56;87.31
51147;BME280;37207;53.060;18.726;2022-10-16T08:17:57;100812.60;;;15.59;87.41
51147;BME280;37207;53.060;18.726;2022-10-16T08:20:25;100813.40;;;15.70;87.35
51147;BME280;37207;53.060;18.726;2022-10-16T08:22:52;100813.48;;;15.88;87.37
51147;BME280;37207;53.060;18.726;2022-10-16T08:25:21;100813.70;;;16.06;87.25
51147;BME280;37207;53.060;18.726;2022-10-16T08:27:48;100819.77;;;16.19;87.06
51147;BME280;37207;53.060;18.726;2022-10-16T08:30:17;100827.12;;;16.26;86.81
51147;BME280;37207;53.060;18.726;2022-10-16T08:32:44;100826.61;;;16.31;86.61
51147;BME280;37207;53.060;18.726;2022-10-16T08:35:12;100828.15;;;16.35;86.48
51147;BME280;37207;53.060;18.726;2022-10-16T08:37:39;100826.04;;;16.41;86.46
51147;BME280;37207;53.060;18.726;2022-10-16T08:40:07;100827.56;;;16.50;86.46
51147;BME280;37207;53.060;18.726;2022-10-16T08:51:13;100832.04;;;17.56;85.22
51147;BME280;37207;53.060;18.726;2022-10-16T08:53:43;100829.33;;;17.78;84.85
51147;BME280;37207;53.060;18.726;2022-10-16T08:56:11;100834.80;;;17.96;84.50
51147;BME280;37207;53.060;18.726;2022-10-16T08:58:37;100836.58;;;18.12;84.11
51147;BME280;37207;53.060;18.726;2022-10-16T09:01:11;100838.05;;;18.20;83.43
51147;BME280;37207;53.060;18.726;2022-10-16T09:15:07;100826.09;;;19.24;81.41
51147;BME280;37207;53.060;18.726;2022-10-16T09:25:31;100828.98;;;20.66;77.89
51147;BME280;37207;53.060;18.726;2022-10-16T09:27:58;100828.77;;;20.43;77.38
51147;BME280;37207;53.060;18.726;2022-10-16T09:30:27;100832.83;;;20.17;77.00
51147;BME280;37207;53.060;18.726;2022-10-16T09:32:57;100836.11;;;19.91;76.67
51147;BME280;37207;53.060;18.726;2022-10-16T09:38:00;100847.34;;;19.45;76.49
51147;BME280;37207;53.060;18.726;2022-10-16T09:40:36;100851.21;;;19.38;76.88
51147;BME280;37207;53.060;18.726;2022-10-16T09:45:54;100848.12;;;19.39;77.10
51147;BME280;37207;53.060;18.726;2022-10-16T09:48:22;100848.64;;;19.66;77.19
51147;BME280;37207;53.060;18.726;2022-10-16T09:50:57;100841.90;;;20.07;77.06
51147;BME280;37207;53.060;18.726;2022-10-16T09:53:26;100845.59;;;20.33;76.31
51147;BME280;37207;53.060;18.726;2022-10-16T09:56:01;100848.59;;;20.46;75.79
51147;BME280;37207;53.060;18.726;2022-10-16T09:58:30;100847.42;;;20.53;75.48
51147;BME280;37207;53.060;18.726;2022-10-16T10:00:56;100853.03;;;20.50;74.89
51147;BME280;37207;53.060;18.726;2022-10-16T10:03:35;100850.37;;;20.44;74.65
51147;BME280;37207;53.060;18.726;2022-10-16T10:06:14;100848.52;;;20.40;74.81
51147;BME280;37207;53.060;18.726;2022-10-16T10:08:54;100850.16;;;20.31;74.36
51147;BME280;37207;53.060;18.726;2022-10-16T10:11:44;100849.13;;;20.23;74.55
51147;BME280;37207;53.060;18.726;2022-10-16T10:17:01;100845.61;;;19.96;74.52
51147;BME280;37207;53.060;18.726;2022-10-16T10:19:28;100846.70;;;19.82;74.21
51147;BME280;37207;53.060;18.726;2022-10-16T10:21:55;100840.82;;;19.74;74.20
51147;BME280;37207;53.060;18.726;2022-10-16T10:24:22;100841.52;;;19.72;74.40
51147;BME280;37207;53.060;18.726;2022-10-16T10:27:00;100840.12;;;19.85;74.75
51147;BME280;37207;53.060;18.726;2022-10-16T10:29:58;100842.13;;;19.99;74.35
51147;BME280;37207;53.060;18.726;2022-10-16T10:35:22;100843.48;;;20.15;73.85
51147;BME280;37207;53.060;18.726;2022-10-16T10:46:04;100855.45;;;20.53;72.80
51147;BME280;37207;53.060;18.726;2022-10-16T10:48:58;100850.74;;;20.44;72.59
51147;BME280;37207;53.060;18.726;2022-10-16T10:58:15;100850.18;;;20.30;72.29
51147;BME280;37207;53.060;18.726;2022-10-16T11:06:24;100862.88;;;20.14;72.04
51147;BME280;37207;53.060;18.726;2022-10-16T11:08:58;100868.27;;;20.04;72.32
51147;BME280;37207;53.060;18.726;2022-10-16T11:14:21;100866.94;;;19.70;72.36
51147;BME280;37207;53.060;18.726;2022-10-16T11:20:05;100878.36;;;19.42;72.55
51147;BME280;37207;53.060;18.726;2022-10-16T11:22:20;100878.96;;;19.28;72.83
51147;BME280;37207;53.060;18.726;2022-10-16T11:24:54;100874.48;;;19.21;73.09
51147;BME280;37207;53.060;18.726;2022-10-16T11:30:24;100871.99;;;19.25;73.40
51147;BME280;37207;53.060;18.726;2022-10-16T11:33:44;100875.73;;;19.33;73.25
51147;BME280;37207;53.060;18.726;2022-10-16T11:35:50;100880.48;;;19.29;73.15
51147;BME280;37207;53.060;18.726;2022-10-16T11:39:07;100874.79;;;19.28;73.17
51147;BME280;37207;53.060;18.726;2022-10-16T11:46:40;100890.67;;;19.55;73.13
51147;BME280;37207;53.060;18.726;2022-10-16T11:49:18;100887.33;;;19.66;72.97
51147;BME280;37207;53.060;18.726;2022-10-16T11:57:40;100890.55;;;20.39;72.29
51147;BME280;37207;53.060;18.726;2022-10-16T12:00:24;100890.92;;;20.34;72.10
51147;BME280;37207;53.060;18.726;2022-10-16T12:08:11;100878.83;;;20.17;72.19
51147;BME280;37207;53.060;18.726;2022-10-16T12:10:39;100877.11;;;20.18;72.11
51147;BME280;37207;53.060;18.726;2022-10-16T12:18:33;100891.36;;;20.15;71.85
51147;BME280;37207;53.060;18.726;2022-10-16T12:21:00;100887.75;;;20.08;71.95
51147;BME280;37207;53.060;18.726;2022-10-16T12:23:53;100880.17;;;20.05;71.95
51147;BME280;37207;53.060;18.726;2022-10-16T12:26:27;100880.11;;;19.99;72.16
51147;BME280;37207;53.060;18.726;2022-10-16T12:28:55;100873.11;;;19.93;72.33
51147;BME280;37207;53.060;18.726;2022-10-16T12:31:44;100871.13;;;19.89;72.37
51147;BME280;37207;53.060;18.726;2022-10-16T12:34:23;100875.64;;;19.86;72.64
51147;BME280;37207;53.060;18.726;2022-10-16T12:36:54;100884.72;;;19.83;72.64
51147;BME280;37207;53.060;18.726;2022-10-16T12:39:23;100884.29;;;19.78;72.75
51147;BME280;37207;53.060;18.726;2022-10-16T12:42:05;100886.18;;;19.74;72.76
51147;BME280;37207;53.060;18.726;2022-10-16T12:44:34;100886.85;;;19.67;72.75
51147;BME280;37207;53.060;18.726;2022-10-16T12:47:02;100888.88;;;19.59;72.86
51147;BME280;37207;53.060;18.726;2022-10-16T12:49:32;100886.66;;;19.54;73.11
51147;BME280;37207;53.060;18.726;2022-10-16T12:52:00;100887.55;;;19.51;73.21
51147;BME280;37207;53.060;18.726;2022-10-16T12:54:30;100892.12;;;19.47;73.45
51147;BME280;37207;53.060;18.726;2022-10-16T13:00:03;100903.77;;;19.40;73.55
51147;BME280;37207;53.060;18.726;2022-10-16T13:05:11;100906.39;;;19.32;73.90
51147;BME280;37207;53.060;18.726;2022-10-16T13:18:35;100914.21;;;18.98;74.58
51147;BME280;37207;53.060;18.726;2022-10-16T13:21:30;100915.08;;;18.92;74.81
51147;BME280;37207;53.060;18.726;2022-10-16T13:27:29;100906.33;;;18.81;75.03
51147;BME280;37207;53.060;18.726;2022-10-16T13:30:12;100909.10;;;18.73;74.99
51147;BME280;37207;53.060;18.726;2022-10-16T13:32:45;100906.50;;;18.65;75.17
51147;BME280;37207;53.060;18.726;2022-10-16T13:35:25;100903.89;;;18.60;75.33
51147;BME280;37207;53.060;18.726;2022-10-16T13:38:16;100910.05;;;18.55;75.39
51147;BME280;37207;53.060;18.726;2022-10-16T13:43:22;100915.38;;;18.48;75.86
51147;BME280;37207;53.060;18.726;2022-10-16T13:45:57;100920.58;;;18.42;75.93
51147;BME280;37207;53.060;18.726;2022-10-16T13:48:25;100927.42;;;18.37;76.22
51147;BME280;37207;53.060;18.726;2022-10-16T13:51:20;100927.98;;;18.32;76.25
51147;BME280;37207;53.060;18.726;2022-10-16T13:53:46;100933.99;;;18.27;76.45
51147;BME280;37207;53.060;18.726;2022-10-16T13:56:19;100932.83;;;18.23;76.53
51147;BME280;37207;53.060;18.726;2022-10-16T13:58:58;100941.95;;;18.18;76.70
51147;BME280;37207;53.060;18.726;2022-10-16T14:01:30;100953.20;;;18.14;77.01
51147;BME280;37207;53.060;18.726;2022-10-16T14:04:03;100949.84;;;18.11;76.97
51147;BME280;37207;53.060;18.726;2022-10-16T14:06:31;100955.89;;;18.11;77.08
51147;BME280;37207;53.060;18.726;2022-10-16T14:09:04;100951.23;;;18.13;77.10
51147;BME280;37207;53.060;18.726;2022-10-16T14:11:33;100950.05;;;18.14;77.25
51147;BME280;37207;53.060;18.726;2022-10-16T14:14:01;100950.74;;;18.15;77.26
51147;BME280;37207;53.060;18.726;2022-10-16T14:16:30;100951.14;;;18.17;77.31
51147;BME280;37207;53.060;18.726;2022-10-16T14:19:03;100955.96;;;18.17;77.36
51147;BME280;37207;53.060;18.726;2022-10-16T14:21:31;100964.00;;;18.17;77.46
51147;BME280;37207;53.060;18.726;2022-10-16T14:23:59;100967.69;;;18.15;77.54
51147;BME280;37207;53.060;18.726;2022-10-16T14:26:42;100967.00;;;18.12;77.57
51147;BME280;37207;53.060;18.726;2022-10-16T14:29:19;100973.05;;;18.08;77.57
51147;BME280;37207;53.060;18.726;2022-10-16T14:34:30;100975.17;;;18.01;77.82
51147;BME280;37207;53.060;18.726;2022-10-16T14:37:06;100973.27;;;17.97;77.86
51147;BME280;37207;53.060;18.726;2022-10-16T14:39:35;100966.64;;;17.94;78.01
51147;BME280;37207;53.060;18.726;2022-10-16T14:42:02;100966.36;;;17.91;78.06
51147;BME280;37207;53.060;18.726;2022-10-16T14:44:31;100966.33;;;17.90;78.23
51147;BME280;37207;53.060;18.726;2022-10-16T14:47:07;100973.62;;;17.89;78.34
51147;BME280;37207;53.060;18.726;2022-10-16T14:49:35;100980.48;;;17.89;78.41
51147;BME280;37207;53.060;18.726;2022-10-16T14:52:08;100979.55;;;17.88;78.42
51147;BME280;37207;53.060;18.726;2022-10-16T14:54:34;100980.52;;;17.89;78.41
51147;BME280;37207;53.060;18.726;2022-10-16T14:57:01;100984.95;;;17.93;78.68
51147;BME280;37207;53.060;18.726;2022-10-16T14:59:39;100986.14;;;17.96;78.69
51147;BME280;37207;53.060;18.726;2022-10-16T15:02:18;100985.31;;;17.99;78.70
51147;BME280;37207;53.060;18.726;2022-10-16T15:04:47;100983.17;;;18.03;78.60
51147;BME280;37207;53.060;18.726;2022-10-16T15:07:14;100983.11;;;18.04;78.64
51147;BME280;37207;53.060;18.726;2022-10-16T15:09:40;100987.02;;;18.04;78.61